CMA-CGM Fort Saint Pierre — FQFM — position and weather

sailwx.info

Track history (hours):
 
Tides and Currents Weather Stations Pressure Air Temp Water Temp Dewpoint Dewpoint Depression Visibility Wind Speed Wind Dir Waves Ship Positions

CMA-CGM Fort Saint Pierre

Last reported at 2016-Sep-14 13:23 UTC. Time now 2016-Oct-01 10:22 UTC.
Position N 49°23' W 005°21'.
Warning: this ship's position is 16 days out of date.

Length 197 m; beam 30 m.

Type: Ship (hazmat cat A). MMSI: 226328000.

Date/timePositionNaut miles runAvg speedWind from/ knotsBaromVisibWave heightAir tempDewpointWater temp
2016-Sep-14 13:23N 49°23' W 005°21'3813.3
2016-Sep-14 10:33N 49°37' W 004°27'1514.6
2016-Sep-14 09:33N 49°42' W 004°06'1414.4
2016-Sep-14 08:33N 49°47' W 003°45'1414.2
2016-Sep-14 07:33N 49°52' W 003°25'1414.5
2016-Sep-14 06:33N 49°58' W 003°04'4214.0
2016-Sep-14 03:34N 50°04' W 001°60'7314.5
2016-Sep-13 22:34N 49°33' W 000°18'19 9.3
2016-Sep-13 20:31N 49°27' E 000°10'0 0.0
2016-Sep-13 18:31N 49°27' E 000°10'0 0.0
2016-Sep-13 17:31N 49°27' E 000°10'0 0.0
2016-Sep-13 16:31N 49°27' E 000°10'4 0.8
2016-Sep-13 11:33N 49°29' E 000°04'16 8.0
2016-Sep-13 09:33N 49°41' W 000°11'2814.1
2016-Sep-13 07:33N 50°09' W 000°12'1414.0
2016-Sep-13 06:34N 50°23' W 000°13'2412.2
2016-Sep-13 04:34N 50°32' E 000°23'2612.5
2016-Sep-13 02:30N 50°46' E 000°57'3812.8
2016-Sep-12 23:34N 51°11' E 001°41'2010.1
2016-Sep-12 21:34N 51°27' E 002°02'2110.7
2016-Sep-12 19:34N 51°23' E 002°35'3215.8
2016-Sep-12 17:34N 51°25' E 003°26'3110.4
2016-Sep-12 14:34N 51°21' E 004°16'3 1.7
2016-Sep-12 12:31N 51°18' E 004°16'0 0.0
2016-Sep-12 11:22N 51°18' E 004°16'0 0.0
2016-Sep-12 10:28N 51°18' E 004°16'0 0.0
2016-Sep-12 07:31N 51°18' E 004°16'0 0.0
2016-Sep-12 06:28N 51°18' E 004°16'0 0.0
2016-Sep-12 03:25N 51°18' E 004°16'3 1.8
2016-Sep-12 01:34N 51°21' E 004°15'18 8.9
2016-Sep-11 23:34N 51°21' E 003°47'10 9.8
2016-Sep-11 22:33N 51°26' E 003°34'1313.0
2016-Sep-11 21:34N 51°37' E 003°22'1414.1
2016-Sep-11 20:33N 51°51' E 003°18'1917.3
2016-Sep-11 19:28N 52°10' E 003°22'3518.3
2016-Sep-11 17:32N 52°43' E 003°37'2020.2
2016-Sep-11 16:32N 52°58' E 004°01'4519.8
2016-Sep-11 14:15N 53°31' E 004°52'1319.3
2016-Sep-11 13:33N 53°36' E 005°14'1919.4
2016-Sep-11 12:33N 53°42' E 005°45'2019.9
2016-Sep-11 11:33N 53°49' E 006°16'2120.6
2016-Sep-11 10:33N 53°54' E 006°50'4120.6
2016-Sep-11 08:33N 54°01' E 007°59'1716.6
2016-Sep-11 07:33N 53°59' E 008°27'4611.4
2016-Sep-11 03:33N 53°37' E 009°34'1111.3
2016-Sep-11 02:33N 53°33' E 009°52'2 2.1
2016-Sep-11 01:32N 53°32' E 009°55'0 0.0
2016-Sep-11 00:33N 53°32' E 009°55'0 0.0
2016-Sep-10 23:32N 53°32' E 009°55'0 0.0
2016-Sep-10 22:32N 53°32' E 009°55'0 0.0
2016-Sep-10 21:32N 53°32' E 009°55'0 0.0
2016-Sep-10 20:32N 53°32' E 009°55'0 0.0
2016-Sep-10 19:32N 53°32' E 009°55'0 0.0
2016-Sep-10 18:32N 53°32' E 009°55'0 0.0
2016-Sep-10 17:32N 53°32' E 009°55'0 0.0
2016-Sep-10 16:32N 53°32' E 009°55'0 0.0
2016-Sep-10 15:32N 53°32' E 009°55'0 0.1
2016-Sep-10 14:34N 53°32' E 009°55'0 0.1
2016-Sep-10 13:33N 53°32' E 009°55'1 1.4
2016-Sep-10 12:33N 53°32' E 009°53'6 6.5
2016-Sep-10 11:34N 53°34' E 009°43'8 8.3
2016-Sep-10 10:33N 53°39' E 009°31'9 9.3
2016-Sep-10 09:34N 53°47' E 009°23'7 6.8
2016-Sep-10 08:34N 53°52' E 009°17'6 6.0
2016-Sep-10 07:33N 53°53' E 009°06'1211.9
2016-Sep-10 06:33N 53°51' E 008°46'1211.9
2016-Sep-10 05:34N 53°58' E 008°31'1313.2
2016-Sep-10 04:33N 53°59' E 008°09'5 4.6
2016-Sep-10 03:33N 53°58' E 008°01'7 7.4
2016-Sep-10 02:33N 53°58' E 007°49'8 7.9
2016-Sep-10 01:33N 53°55' E 007°36'9 9.4
2016-Sep-10 00:33N 53°53' E 007°21'1010.1
2016-Sep-09 23:33N 53°51' E 007°04'1010.2
2016-Sep-09 22:33N 53°49' E 006°47'1010.2
2016-Sep-09 21:33N 53°47' E 006°30'7 6.9
2016-Sep-09 20:33N 53°45' E 006°19'6 6.1
2016-Sep-09 19:33N 53°43' E 006°09'6 6.0
2016-Sep-09 18:33N 53°40' E 005°60'6 6.2
2016-Sep-09 17:33N 53°38' E 005°50'6 6.3
2016-Sep-09 16:33N 53°37' E 005°39'7 6.5
2016-Sep-09 15:33N 53°34' E 005°29'7 6.9
2016-Sep-09 14:33N 53°32' E 005°18'10 9.8
2016-Sep-09 13:34N 53°29' E 005°03'1916.1
2016-Sep-09 12:21N 53°16' E 004°37'1417.1
2016-Sep-09 11:33N 53°05' E 004°26'1717.1
2016-Sep-09 10:33N 52°50' E 004°13'1817.1
2016-Sep-09 09:32N 52°35' E 003°57'1717.1
2016-Sep-09 08:33N 52°18' E 003°52'1515.4
2016-Sep-09 07:33N 52°03' E 003°55'1212.5
2016-Sep-09 06:34N 51°56' E 004°12'9 8.7
2016-Sep-09 05:34N 51°54' E 004°25'1 0.7
2016-Sep-09 04:32N 51°54' E 004°26'0 0.0
2016-Sep-09 03:32N 51°54' E 004°26'0 0.0
2016-Sep-09 02:32N 51°54' E 004°26'0 0.0
2016-Sep-09 01:32N 51°54' E 004°26'0 0.0
2016-Sep-09 00:32N 51°54' E 004°26'0 0.0
2016-Sep-08 23:32N 51°54' E 004°26'0 0.0
2016-Sep-08 22:32N 51°54' E 004°26'0 0.0
2016-Sep-08 21:32N 51°54' E 004°26'0 0.0
2016-Sep-08 20:32N 51°54' E 004°26'0 0.0
2016-Sep-08 19:32N 51°54' E 004°26'0 0.0
2016-Sep-08 18:32N 51°54' E 004°26'0 0.0
2016-Sep-08 17:32N 51°54' E 004°26'0 0.0
2016-Sep-08 16:32N 51°54' E 004°26'0 0.0
2016-Sep-08 15:32N 51°54' E 004°26'0 0.0
2016-Sep-08 14:29N 51°54' E 004°26'0 0.0
2016-Sep-08 13:32N 51°54' E 004°26'0 0.0
2016-Sep-08 12:32N 51°54' E 004°26'0 0.0
2016-Sep-08 11:32N 51°54' E 004°26'0 0.0
2016-Sep-08 10:32N 51°54' E 004°26'0 0.0
2016-Sep-08 09:32N 51°54' E 004°26'0 0.0
2016-Sep-08 08:32N 51°54' E 004°26'0 0.0
2016-Sep-08 07:29N 51°54' E 004°26'0 0.0
2016-Sep-08 06:32N 51°54' E 004°26'0 0.0
2016-Sep-08 05:32N 51°54' E 004°26'0 0.0
2016-Sep-08 04:32N 51°54' E 004°26'1 0.9
2016-Sep-08 03:33N 51°54' E 004°25'7 7.4
2016-Sep-08 02:33N 51°56' E 004°13'1212.3
2016-Sep-08 01:34N 51°60' E 003°54'9 9.5
2016-Sep-08 00:34N 51°58' E 003°39'1211.6
2016-Sep-07 23:33N 51°54' E 003°22'9 8.9
2016-Sep-07 22:34N 51°52' E 003°08'10 9.8
2016-Sep-07 21:33N 51°49' E 002°53'10 9.6
2016-Sep-07 20:33N 51°46' E 002°38'1010.2
2016-Sep-07 19:33N 51°38' E 002°27'9 9.3
2016-Sep-07 18:33N 51°31' E 002°17'9 9.5
2016-Sep-07 17:33N 51°25' E 002°06'10 9.7
2016-Sep-07 16:33N 51°18' E 001°55'1010.2
2016-Sep-07 15:33N 51°10' E 001°45'1211.6
2016-Sep-07 14:34N 51°01' E 001°33'1110.5
2016-Sep-07 13:33N 50°52' E 001°25'1110.3
2016-Sep-07 12:32N 50°42' E 001°19'1010.3
2016-Sep-07 11:33N 50°35' E 001°08'1210.4
2016-Sep-07 10:23N 50°28' E 000°52'910.4
2016-Sep-07 09:33N 50°25' E 000°39'1110.5
2016-Sep-07 08:33N 50°22' E 000°24'1010.5
2016-Sep-07 07:33N 50°19' E 000°08'1110.7
2016-Sep-07 06:33N 50°17' W 000°09'2110.3
2016-Sep-07 04:33N 50°12' W 000°40'1010.1
2016-Sep-07 03:32N 50°10' W 000°56'10 9.9
2016-Sep-07 02:33N 50°07' W 001°10'1010.1
2016-Sep-07 01:33N 50°03' W 001°25'1010.4
2016-Sep-07 00:33N 50°01' W 001°41'1110.7
2016-Sep-06 23:33N 49°58' W 001°57'1111.2
2016-Sep-06 22:34N 49°55' W 002°14'1111.3
2016-Sep-06 21:33N 49°52' W 002°30'1211.5
2016-Sep-06 20:33N 49°49' W 002°48'1211.2
2016-Sep-06 19:29N 49°45' W 003°05'1010.9
2016-Sep-06 18:33N 49°41' W 003°19'1010.5
2016-Sep-06 17:33N 49°37' W 003°35'1010.4
2016-Sep-06 16:33N 49°33' W 003°50'1110.4
2016-Sep-06 15:32N 49°30' W 004°05'1110.5
2016-Sep-06 14:27N 49°26' W 004°21'8 8.6
2016-Sep-06 13:31N 49°25' W 004°34'8 8.4
2016-Sep-06 12:31N 49°24' W 004°47'8 8.7
2016-Sep-06 11:33N 49°23' W 004°59'1414.1
2016-Sep-06 10:34N 49°20' W 005°20'1514.9
2016-Sep-06 09:33N 49°17' W 005°43'1414.5
2016-Sep-06 08:33N 49°13' W 006°04'1615.5
2016-Sep-06 07:29N 49°09' W 006°29'5117.4
2016-Sep-06 04:32N 48°56' W 007°44'  
Track history (hours):
 
Tides and Currents Weather Stations Pressure Air Temp Water Temp Dewpoint Dewpoint Depression Visibility Wind Speed Wind Dir Waves Ship Positions

CMA-CGM Fort Saint Pierre

Last reported at 2016-Sep-14 13:23 UTC. Time now 2016-Oct-01 10:22 UTC.
Position N 49°23' W 005°21'.
Warning: this ship's position is 16 days out of date.

Length 197 m; beam 30 m.

Type: Ship (hazmat cat A). MMSI: 226328000.

Date/timePositionNaut miles runAvg speedWind from/ knotsBaromVisibWave heightAir tempDewpointWater temp
2016-Sep-14 13:23N 49°23' W 005°21'3813.3
2016-Sep-14 10:33N 49°37' W 004°27'1514.6
2016-Sep-14 09:33N 49°42' W 004°06'1414.4
2016-Sep-14 08:33N 49°47' W 003°45'1414.2
2016-Sep-14 07:33N 49°52' W 003°25'1414.5
2016-Sep-14 06:33N 49°58' W 003°04'4214.0
2016-Sep-14 03:34N 50°04' W 001°60'7314.5
2016-Sep-13 22:34N 49°33' W 000°18'19 9.3
2016-Sep-13 20:31N 49°27' E 000°10'0 0.0
2016-Sep-13 18:31N 49°27' E 000°10'0 0.0
2016-Sep-13 17:31N 49°27' E 000°10'0 0.0
2016-Sep-13 16:31N 49°27' E 000°10'4 0.8
2016-Sep-13 11:33N 49°29' E 000°04'16 8.0
2016-Sep-13 09:33N 49°41' W 000°11'2814.1
2016-Sep-13 07:33N 50°09' W 000°12'1414.0
2016-Sep-13 06:34N 50°23' W 000°13'2412.2
2016-Sep-13 04:34N 50°32' E 000°23'2612.5
2016-Sep-13 02:30N 50°46' E 000°57'3812.8
2016-Sep-12 23:34N 51°11' E 001°41'2010.1
2016-Sep-12 21:34N 51°27' E 002°02'2110.7
2016-Sep-12 19:34N 51°23' E 002°35'3215.8
2016-Sep-12 17:34N 51°25' E 003°26'3110.4
2016-Sep-12 14:34N 51°21' E 004°16'3 1.7
2016-Sep-12 12:31N 51°18' E 004°16'0 0.0
2016-Sep-12 11:22N 51°18' E 004°16'0 0.0
2016-Sep-12 10:28N 51°18' E 004°16'0 0.0
2016-Sep-12 07:31N 51°18' E 004°16'0 0.0
2016-Sep-12 06:28N 51°18' E 004°16'0 0.0
2016-Sep-12 03:25N 51°18' E 004°16'3 1.8
2016-Sep-12 01:34N 51°21' E 004°15'18 8.9
2016-Sep-11 23:34N 51°21' E 003°47'10 9.8
2016-Sep-11 22:33N 51°26' E 003°34'1313.0
2016-Sep-11 21:34N 51°37' E 003°22'1414.1
2016-Sep-11 20:33N 51°51' E 003°18'1917.3
2016-Sep-11 19:28N 52°10' E 003°22'3518.3
2016-Sep-11 17:32N 52°43' E 003°37'2020.2
2016-Sep-11 16:32N 52°58' E 004°01'4519.8
2016-Sep-11 14:15N 53°31' E 004°52'1319.3
2016-Sep-11 13:33N 53°36' E 005°14'1919.4
2016-Sep-11 12:33N 53°42' E 005°45'2019.9
2016-Sep-11 11:33N 53°49' E 006°16'2120.6
2016-Sep-11 10:33N 53°54' E 006°50'4120.6
2016-Sep-11 08:33N 54°01' E 007°59'1716.6
2016-Sep-11 07:33N 53°59' E 008°27'4611.4
2016-Sep-11 03:33N 53°37' E 009°34'1111.3
2016-Sep-11 02:33N 53°33' E 009°52'2 2.1
2016-Sep-11 01:32N 53°32' E 009°55'0 0.0
2016-Sep-11 00:33N 53°32' E 009°55'0 0.0
2016-Sep-10 23:32N 53°32' E 009°55'0 0.0
2016-Sep-10 22:32N 53°32' E 009°55'0 0.0
2016-Sep-10 21:32N 53°32' E 009°55'0 0.0
2016-Sep-10 20:32N 53°32' E 009°55'0 0.0
2016-Sep-10 19:32N 53°32' E 009°55'0 0.0
2016-Sep-10 18:32N 53°32' E 009°55'0 0.0
2016-Sep-10 17:32N 53°32' E 009°55'0 0.0
2016-Sep-10 16:32N 53°32' E 009°55'0 0.0
2016-Sep-10 15:32N 53°32' E 009°55'0 0.1
2016-Sep-10 14:34N 53°32' E 009°55'0 0.1
2016-Sep-10 13:33N 53°32' E 009°55'1 1.4
2016-Sep-10 12:33N 53°32' E 009°53'6 6.5
2016-Sep-10 11:34N 53°34' E 009°43'8 8.3
2016-Sep-10 10:33N 53°39' E 009°31'9 9.3
2016-Sep-10 09:34N 53°47' E 009°23'7 6.8
2016-Sep-10 08:34N 53°52' E 009°17'6 6.0
2016-Sep-10 07:33N 53°53' E 009°06'1211.9
2016-Sep-10 06:33N 53°51' E 008°46'1211.9
2016-Sep-10 05:34N 53°58' E 008°31'1313.2
2016-Sep-10 04:33N 53°59' E 008°09'5 4.6
2016-Sep-10 03:33N 53°58' E 008°01'7 7.4
2016-Sep-10 02:33N 53°58' E 007°49'8 7.9
2016-Sep-10 01:33N 53°55' E 007°36'9 9.4
2016-Sep-10 00:33N 53°53' E 007°21'1010.1
2016-Sep-09 23:33N 53°51' E 007°04'1010.2
2016-Sep-09 22:33N 53°49' E 006°47'1010.2
2016-Sep-09 21:33N 53°47' E 006°30'7 6.9
2016-Sep-09 20:33N 53°45' E 006°19'6 6.1
2016-Sep-09 19:33N 53°43' E 006°09'6 6.0
2016-Sep-09 18:33N 53°40' E 005°60'6 6.2
2016-Sep-09 17:33N 53°38' E 005°50'6 6.3
2016-Sep-09 16:33N 53°37' E 005°39'7 6.5
2016-Sep-09 15:33N 53°34' E 005°29'7 6.9
2016-Sep-09 14:33N 53°32' E 005°18'10 9.8
2016-Sep-09 13:34N 53°29' E 005°03'1916.1
2016-Sep-09 12:21N 53°16' E 004°37'1417.1
2016-Sep-09 11:33N 53°05' E 004°26'1717.1
2016-Sep-09 10:33N 52°50' E 004°13'1817.1
2016-Sep-09 09:32N 52°35' E 003°57'1717.1
2016-Sep-09 08:33N 52°18' E 003°52'1515.4
2016-Sep-09 07:33N 52°03' E 003°55'1212.5
2016-Sep-09 06:34N 51°56' E 004°12'9 8.7
2016-Sep-09 05:34N 51°54' E 004°25'1 0.7
2016-Sep-09 04:32N 51°54' E 004°26'0 0.0
2016-Sep-09 03:32N 51°54' E 004°26'0 0.0
2016-Sep-09 02:32N 51°54' E 004°26'0 0.0
2016-Sep-09 01:32N 51°54' E 004°26'0 0.0
2016-Sep-09 00:32N 51°54' E 004°26'0 0.0
2016-Sep-08 23:32N 51°54' E 004°26'0 0.0
2016-Sep-08 22:32N 51°54' E 004°26'0 0.0
2016-Sep-08 21:32N 51°54' E 004°26'0 0.0
2016-Sep-08 20:32N 51°54' E 004°26'0 0.0
2016-Sep-08 19:32N 51°54' E 004°26'0 0.0
2016-Sep-08 18:32N 51°54' E 004°26'0 0.0
2016-Sep-08 17:32N 51°54' E 004°26'0 0.0
2016-Sep-08 16:32N 51°54' E 004°26'0 0.0
2016-Sep-08 15:32N 51°54' E 004°26'0 0.0
2016-Sep-08 14:29N 51°54' E 004°26'0 0.0
2016-Sep-08 13:32N 51°54' E 004°26'0 0.0
2016-Sep-08 12:32N 51°54' E 004°26'0 0.0
2016-Sep-08 11:32N 51°54' E 004°26'0 0.0
2016-Sep-08 10:32N 51°54' E 004°26'0 0.0
2016-Sep-08 09:32N 51°54' E 004°26'0 0.0
2016-Sep-08 08:32N 51°54' E 004°26'0 0.0
2016-Sep-08 07:29N 51°54' E 004°26'0 0.0
2016-Sep-08 06:32N 51°54' E 004°26'0 0.0
2016-Sep-08 05:32N 51°54' E 004°26'0 0.0
2016-Sep-08 04:32N 51°54' E 004°26'1 0.9
2016-Sep-08 03:33N 51°54' E 004°25'7 7.4
2016-Sep-08 02:33N 51°56' E 004°13'1212.3
2016-Sep-08 01:34N 51°60' E 003°54'9 9.5
2016-Sep-08 00:34N 51°58' E 003°39'1211.6
2016-Sep-07 23:33N 51°54' E 003°22'9 8.9
2016-Sep-07 22:34N 51°52' E 003°08'10 9.8
2016-Sep-07 21:33N 51°49' E 002°53'10 9.6
2016-Sep-07 20:33N 51°46' E 002°38'1010.2
2016-Sep-07 19:33N 51°38' E 002°27'9 9.3
2016-Sep-07 18:33N 51°31' E 002°17'9 9.5
2016-Sep-07 17:33N 51°25' E 002°06'10 9.7
2016-Sep-07 16:33N 51°18' E 001°55'1010.2
2016-Sep-07 15:33N 51°10' E 001°45'1211.6
2016-Sep-07 14:34N 51°01' E 001°33'1110.5
2016-Sep-07 13:33N 50°52' E 001°25'1110.3
2016-Sep-07 12:32N 50°42' E 001°19'1010.3
2016-Sep-07 11:33N 50°35' E 001°08'1210.4
2016-Sep-07 10:23N 50°28' E 000°52'910.4
2016-Sep-07 09:33N 50°25' E 000°39'1110.5
2016-Sep-07 08:33N 50°22' E 000°24'1010.5
2016-Sep-07 07:33N 50°19' E 000°08'1110.7
2016-Sep-07 06:33N 50°17' W 000°09'2110.3
2016-Sep-07 04:33N 50°12' W 000°40'1010.1
2016-Sep-07 03:32N 50°10' W 000°56'10 9.9
2016-Sep-07 02:33N 50°07' W 001°10'1010.1
2016-Sep-07 01:33N 50°03' W 001°25'1010.4
2016-Sep-07 00:33N 50°01' W 001°41'1110.7
2016-Sep-06 23:33N 49°58' W 001°57'1111.2
2016-Sep-06 22:34N 49°55' W 002°14'1111.3
2016-Sep-06 21:33N 49°52' W 002°30'1211.5
2016-Sep-06 20:33N 49°49' W 002°48'1211.2
2016-Sep-06 19:29N 49°45' W 003°05'1010.9
2016-Sep-06 18:33N 49°41' W 003°19'1010.5
2016-Sep-06 17:33N 49°37' W 003°35'1010.4
2016-Sep-06 16:33N 49°33' W 003°50'1110.4
2016-Sep-06 15:32N 49°30' W 004°05'1110.5
2016-Sep-06 14:27N 49°26' W 004°21'8 8.6
2016-Sep-06 13:31N 49°25' W 004°34'8 8.4
2016-Sep-06 12:31N 49°24' W 004°47'8 8.7
2016-Sep-06 11:33N 49°23' W 004°59'1414.1
2016-Sep-06 10:34N 49°20' W 005°20'1514.9
2016-Sep-06 09:33N 49°17' W 005°43'1414.5
2016-Sep-06 08:33N 49°13' W 006°04'1615.5
2016-Sep-06 07:29N 49°09' W 006°29'5117.4
2016-Sep-06 04:32N 48°56' W 007°44'  

Dump ship's entire track history